sensor_id;sensor_type;location;lat;lon;timestamp;P1;durP1;ratioP1;P2;durP2;ratioP2
35530;SDS011;21637;53.352;-6.356;2024-03-23T00:53:48;8.13;;;2.50;;
35530;SDS011;21637;53.352;-6.356;2024-03-23T00:56:14;12.43;;;2.25;;
35530;SDS011;21637;53.352;-6.356;2024-03-23T00:58:39;12.02;;;2.40;;
35530;SDS011;21637;53.352;-6.356;2024-03-23T01:01:06;15.13;;;2.50;;
35530;SDS011;21637;53.352;-6.356;2024-03-23T01:03:31;7.40;;;1.92;;
35530;SDS011;21637;53.352;-6.356;2024-03-23T01:06:00;7.95;;;2.30;;
35530;SDS011;21637;53.352;-6.356;2024-03-23T01:08:26;8.73;;;2.00;;
35530;SDS011;21637;53.352;-6.356;2024-03-23T01:10:59;13.02;;;2.47;;
35530;SDS011;21637;53.352;-6.356;2024-03-23T01:13:26;10.73;;;2.20;;
35530;SDS011;21637;53.352;-6.356;2024-03-23T01:15:52;8.95;;;2.53;;
35530;SDS011;21637;53.352;-6.356;2024-03-23T01:18:19;16.15;;;2.45;;
35530;SDS011;21637;53.352;-6.356;2024-03-23T01:20:46;16.05;;;2.53;;
35530;SDS011;21637;53.352;-6.356;2024-03-23T01:23:12;14.57;;;2.90;;
35530;SDS011;21637;53.352;-6.356;2024-03-23T01:25:38;6.78;;;2.55;;
35530;SDS011;21637;53.352;-6.356;2024-03-23T01:28:04;12.75;;;2.75;;
35530;SDS011;21637;53.352;-6.356;2024-03-23T01:30:33;12.23;;;2.78;;
35530;SDS011;21637;53.352;-6.356;2024-03-23T01:33:00;9.07;;;2.47;;
35530;SDS011;21637;53.352;-6.356;2024-03-23T01:35:26;14.25;;;2.67;;
35530;SDS011;21637;53.352;-6.356;2024-03-23T01:37:52;14.07;;;2.63;;
35530;SDS011;21637;53.352;-6.356;2024-03-23T01:40:17;13.18;;;2.55;;
35530;SDS011;21637;53.352;-6.356;2024-03-23T01:43:05;11.57;;;2.78;;
35530;SDS011;21637;53.352;-6.356;2024-03-23T01:45:31;8.95;;;2.20;;
35530;SDS011;21637;53.352;-6.356;2024-03-23T01:47:58;11.98;;;2.25;;
35530;SDS011;21637;53.352;-6.356;2024-03-23T01:50:24;8.27;;;1.98;;
35530;SDS011;21637;53.352;-6.356;2024-03-23T01:52:51;10.07;;;2.20;;
35530;SDS011;21637;53.352;-6.356;2024-03-23T01:55:16;13.77;;;3.20;;
35530;SDS011;21637;53.352;-6.356;2024-03-23T01:57:42;13.02;;;2.50;;
35530;SDS011;21637;53.352;-6.356;2024-03-23T02:00:08;15.18;;;3.00;;
35530;SDS011;21637;53.352;-6.356;2024-03-23T02:02:40;20.65;;;3.97;;
35530;SDS011;21637;53.352;-6.356;2024-03-23T02:07:36;12.60;;;2.20;;
35530;SDS011;21637;53.352;-6.356;2024-03-23T02:10:03;10.57;;;2.47;;
35530;SDS011;21637;53.352;-6.356;2024-03-23T02:12:30;9.60;;;2.45;;
35530;SDS011;21637;53.352;-6.356;2024-03-23T02:14:56;11.40;;;2.30;;
35530;SDS011;21637;53.352;-6.356;2024-03-23T02:17:21;13.88;;;2.60;;
35530;SDS011;21637;53.352;-6.356;2024-03-23T02:19:47;14.48;;;2.80;;
35530;SDS011;21637;53.352;-6.356;2024-03-23T02:22:13;11.55;;;2.85;;
35530;SDS011;21637;53.352;-6.356;2024-03-23T02:24:41;18.40;;;3.38;;
35530;SDS011;21637;53.352;-6.356;2024-03-23T02:27:06;15.55;;;2.60;;
35530;SDS011;21637;53.352;-6.356;2024-03-23T02:29:32;7.78;;;2.40;;
35530;SDS011;21637;53.352;-6.356;2024-03-23T02:31:58;14.82;;;2.08;;
35530;SDS011;21637;53.352;-6.356;2024-03-23T02:34:24;14.13;;;2.25;;
35530;SDS011;21637;53.352;-6.356;2024-03-23T02:36:49;19.08;;;2.90;;
35530;SDS011;21637;53.352;-6.356;2024-03-23T02:39:15;12.10;;;2.20;;
35530;SDS011;21637;53.352;-6.356;2024-03-23T02:41:41;15.63;;;3.58;;
35530;SDS011;21637;53.352;-6.356;2024-03-23T02:44:07;16.05;;;2.33;;
35530;SDS011;21637;53.352;-6.356;2024-03-23T02:46:32;15.30;;;2.63;;
35530;SDS011;21637;53.352;-6.356;2024-03-23T02:48:58;12.02;;;2.88;;
35530;SDS011;21637;53.352;-6.356;2024-03-23T02:51:24;10.48;;;2.50;;
35530;SDS011;21637;53.352;-6.356;2024-03-23T02:53:50;16.80;;;2.55;;
35530;SDS011;21637;53.352;-6.356;2024-03-23T02:56:16;12.52;;;2.30;;
35530;SDS011;21637;53.352;-6.356;2024-03-23T02:58:44;15.55;;;2.33;;
35530;SDS011;21637;53.352;-6.356;2024-03-23T03:01:10;11.07;;;2.80;;
35530;SDS011;21637;53.352;-6.356;2024-03-23T03:03:36;20.58;;;2.75;;
35530;SDS011;21637;53.352;-6.356;2024-03-23T03:06:01;15.38;;;2.45;;
35530;SDS011;21637;53.352;-6.356;2024-03-23T03:08:27;12.15;;;2.70;;
35530;SDS011;21637;53.352;-6.356;2024-03-23T03:10:53;12.23;;;2.45;;
35530;SDS011;21637;53.352;-6.356;2024-03-23T03:13:19;15.38;;;2.55;;
35530;SDS011;21637;53.352;-6.356;2024-03-23T03:15:45;7.28;;;2.58;;
35530;SDS011;21637;53.352;-6.356;2024-03-23T03:18:11;13.60;;;2.30;;
35530;SDS011;21637;53.352;-6.356;2024-03-23T03:20:40;12.20;;;2.10;;
35530;SDS011;21637;53.352;-6.356;2024-03-23T03:23:06;19.05;;;2.85;;
35530;SDS011;21637;53.352;-6.356;2024-03-23T03:25:32;14.25;;;3.03;;
35530;SDS011;21637;53.352;-6.356;2024-03-23T03:27:58;14.55;;;2.58;;
35530;SDS011;21637;53.352;-6.356;2024-03-23T03:30:24;13.93;;;2.47;;
35530;SDS011;21637;53.352;-6.356;2024-03-23T03:32:51;18.92;;;2.83;;
35530;SDS011;21637;53.352;-6.356;2024-03-23T03:35:18;13.43;;;3.10;;
35530;SDS011;21637;53.352;-6.356;2024-03-23T03:37:44;11.55;;;2.65;;
35530;SDS011;21637;53.352;-6.356;2024-03-23T03:40:10;14.40;;;2.28;;
35530;SDS011;21637;53.352;-6.356;2024-03-23T03:42:36;14.52;;;2.72;;
35530;SDS011;21637;53.352;-6.356;2024-03-23T03:45:02;15.23;;;2.75;;
35530;SDS011;21637;53.352;-6.356;2024-03-23T03:47:29;11.98;;;2.85;;
35530;SDS011;21637;53.352;-6.356;2024-03-23T03:49:55;15.52;;;2.08;;
35530;SDS011;21637;53.352;-6.356;2024-03-23T03:52:21;10.05;;;1.52;;
35530;SDS011;21637;53.352;-6.356;2024-03-23T03:54:47;8.43;;;2.00;;
35530;SDS011;21637;53.352;-6.356;2024-03-23T03:57:12;11.57;;;1.90;;
35530;SDS011;21637;53.352;-6.356;2024-03-23T03:59:38;9.13;;;1.92;;
35530;SDS011;21637;53.352;-6.356;2024-03-23T04:02:04;10.45;;;2.00;;
35530;SDS011;21637;53.352;-6.356;2024-03-23T04:04:30;12.23;;;2.42;;
35530;SDS011;21637;53.352;-6.356;2024-03-23T04:07:01;12.55;;;1.95;;
35530;SDS011;21637;53.352;-6.356;2024-03-23T04:09:28;10.85;;;1.77;;
35530;SDS011;21637;53.352;-6.356;2024-03-23T04:11:55;8.32;;;2.30;;
35530;SDS011;21637;53.352;-6.356;2024-03-23T04:14:21;13.18;;;2.35;;
35530;SDS011;21637;53.352;-6.356;2024-03-23T04:16:46;10.90;;;2.70;;
35530;SDS011;21637;53.352;-6.356;2024-03-23T04:19:12;8.68;;;2.13;;
35530;SDS011;21637;53.352;-6.356;2024-03-23T04:21:38;10.50;;;2.63;;
35530;SDS011;21637;53.352;-6.356;2024-03-23T04:24:04;9.63;;;2.28;;
35530;SDS011;21637;53.352;-6.356;2024-03-23T04:26:30;13.13;;;3.45;;
35530;SDS011;21637;53.352;-6.356;2024-03-23T04:29:05;10.85;;;2.30;;
35530;SDS011;21637;53.352;-6.356;2024-03-23T04:31:30;15.32;;;2.47;;
35530;SDS011;21637;53.352;-6.356;2024-03-23T04:33:59;11.50;;;2.20;;
35530;SDS011;21637;53.352;-6.356;2024-03-23T04:36:25;11.32;;;2.72;;
35530;SDS011;21637;53.352;-6.356;2024-03-23T04:38:51;17.13;;;2.20;;
35530;SDS011;21637;53.352;-6.356;2024-03-23T04:41:17;10.25;;;2.03;;
35530;SDS011;21637;53.352;-6.356;2024-03-23T04:43:43;9.73;;;2.45;;
35530;SDS011;21637;53.352;-6.356;2024-03-23T04:46:09;10.43;;;2.08;;
35530;SDS011;21637;53.352;-6.356;2024-03-23T04:48:35;13.20;;;2.63;;
35530;SDS011;21637;53.352;-6.356;2024-03-23T04:51:01;14.00;;;2.60;;
35530;SDS011;21637;53.352;-6.356;2024-03-23T04:53:27;14.20;;;2.10;;
35530;SDS011;21637;53.352;-6.356;2024-03-23T04:55:56;12.07;;;2.03;;
35530;SDS011;21637;53.352;-6.356;2024-03-23T04:58:22;15.00;;;2.40;;
35530;SDS011;21637;53.352;-6.356;2024-03-23T05:00:52;13.55;;;2.58;;
35530;SDS011;21637;53.352;-6.356;2024-03-23T05:03:21;10.50;;;2.50;;
35530;SDS011;21637;53.352;-6.356;2024-03-23T05:05:48;17.38;;;2.75;;
35530;SDS011;21637;53.352;-6.356;2024-03-23T05:08:14;11.35;;;2.40;;
35530;SDS011;21637;53.352;-6.356;2024-03-23T05:10:41;12.98;;;2.25;;
35530;SDS011;21637;53.352;-6.356;2024-03-23T05:13:07;21.85;;;2.70;;
35530;SDS011;21637;53.352;-6.356;2024-03-23T05:15:33;14.15;;;2.25;;
35530;SDS011;21637;53.352;-6.356;2024-03-23T05:17:59;11.57;;;1.95;;
35530;SDS011;21637;53.352;-6.356;2024-03-23T05:20:24;15.20;;;2.53;;
35530;SDS011;21637;53.352;-6.356;2024-03-23T05:22:50;13.20;;;2.20;;
35530;SDS011;21637;53.352;-6.356;2024-03-23T05:25:16;11.80;;;2.47;;
35530;SDS011;21637;53.352;-6.356;2024-03-23T05:27:41;11.38;;;2.38;;
35530;SDS011;21637;53.352;-6.356;2024-03-23T05:30:07;17.58;;;2.63;;
35530;SDS011;21637;53.352;-6.356;2024-03-23T05:32:34;19.95;;;2.58;;
35530;SDS011;21637;53.352;-6.356;2024-03-23T05:35:00;11.77;;;2.55;;
35530;SDS011;21637;53.352;-6.356;2024-03-23T05:37:26;15.40;;;2.70;;
35530;SDS011;21637;53.352;-6.356;2024-03-23T05:39:51;15.57;;;2.22;;
35530;SDS011;21637;53.352;-6.356;2024-03-23T05:42:17;12.40;;;2.10;;
35530;SDS011;21637;53.352;-6.356;2024-03-23T05:44:46;12.45;;;2.78;;
35530;SDS011;21637;53.352;-6.356;2024-03-23T05:47:12;13.30;;;2.60;;
35530;SDS011;21637;53.352;-6.356;2024-03-23T05:49:41;10.82;;;1.90;;
35530;SDS011;21637;53.352;-6.356;2024-03-23T05:52:10;13.65;;;2.22;;
35530;SDS011;21637;53.352;-6.356;2024-03-23T05:54:36;15.57;;;2.80;;
35530;SDS011;21637;53.352;-6.356;2024-03-23T05:57:02;14.25;;;2.38;;
35530;SDS011;21637;53.352;-6.356;2024-03-23T05:59:28;14.98;;;2.40;;
35530;SDS011;21637;53.352;-6.356;2024-03-23T06:01:54;16.25;;;2.78;;
35530;SDS011;21637;53.352;-6.356;2024-03-23T06:04:20;13.80;;;2.97;;
35530;SDS011;21637;53.352;-6.356;2024-03-23T06:06:48;14.65;;;2.90;;
35530;SDS011;21637;53.352;-6.356;2024-03-23T06:09:14;10.60;;;2.40;;
35530;SDS011;21637;53.352;-6.356;2024-03-23T06:11:40;12.45;;;2.15;;
35530;SDS011;21637;53.352;-6.356;2024-03-23T06:14:05;21.65;;;2.38;;
35530;SDS011;21637;53.352;-6.356;2024-03-23T06:16:31;8.65;;;1.73;;
35530;SDS011;21637;53.352;-6.356;2024-03-23T06:18:57;11.13;;;2.17;;
35530;SDS011;21637;53.352;-6.356;2024-03-23T06:21:23;7.38;;;2.03;;
35530;SDS011;21637;53.352;-6.356;2024-03-23T06:23:52;8.57;;;2.30;;
35530;SDS011;21637;53.352;-6.356;2024-03-23T06:26:18;13.48;;;2.53;;
35530;SDS011;21637;53.352;-6.356;2024-03-23T06:28:45;12.63;;;2.40;;
35530;SDS011;21637;53.352;-6.356;2024-03-23T06:31:11;13.57;;;2.45;;
35530;SDS011;21637;53.352;-6.356;2024-03-23T06:33:38;11.07;;;1.85;;
35530;SDS011;21637;53.352;-6.356;2024-03-23T06:36:06;11.90;;;2.28;;
35530;SDS011;21637;53.352;-6.356;2024-03-23T06:38:33;10.57;;;2.25;;
35530;SDS011;21637;53.352;-6.356;2024-03-23T06:41:00;10.68;;;3.20;;
35530;SDS011;21637;53.352;-6.356;2024-03-23T06:43:28;8.95;;;2.00;;
35530;SDS011;21637;53.352;-6.356;2024-03-23T06:45:54;17.10;;;2.45;;
35530;SDS011;21637;53.352;-6.356;2024-03-23T06:48:20;9.65;;;2.13;;
35530;SDS011;21637;53.352;-6.356;2024-03-23T06:50:46;10.48;;;2.35;;
35530;SDS011;21637;53.352;-6.356;2024-03-23T06:53:13;10.35;;;2.85;;
35530;SDS011;21637;53.352;-6.356;2024-03-23T06:55:39;12.65;;;1.90;;
35530;SDS011;21637;53.352;-6.356;2024-03-23T06:58:05;10.65;;;2.42;;
35530;SDS011;21637;53.352;-6.356;2024-03-23T07:00:31;9.05;;;2.40;;
35530;SDS011;21637;53.352;-6.356;2024-03-23T07:02:57;12.82;;;2.58;;
35530;SDS011;21637;53.352;-6.356;2024-03-23T07:05:23;14.00;;;2.25;;
35530;SDS011;21637;53.352;-6.356;2024-03-23T07:07:49;8.07;;;1.80;;
35530;SDS011;21637;53.352;-6.356;2024-03-23T07:10:15;14.15;;;3.25;;
35530;SDS011;21637;53.352;-6.356;2024-03-23T07:12:40;9.38;;;2.33;;
35530;SDS011;21637;53.352;-6.356;2024-03-23T07:15:06;21.38;;;2.75;;
35530;SDS011;21637;53.352;-6.356;2024-03-23T07:17:33;15.07;;;2.70;;
35530;SDS011;21637;53.352;-6.356;2024-03-23T07:20:00;16.75;;;3.35;;
35530;SDS011;21637;53.352;-6.356;2024-03-23T07:22:29;14.20;;;2.80;;
35530;SDS011;21637;53.352;-6.356;2024-03-23T07:24:55;16.58;;;2.70;;
35530;SDS011;21637;53.352;-6.356;2024-03-23T07:27:21;14.45;;;2.75;;
35530;SDS011;21637;53.352;-6.356;2024-03-23T07:29:48;9.90;;;2.60;;
35530;SDS011;21637;53.352;-6.356;2024-03-23T07:32:14;13.48;;;2.72;;
35530;SDS011;21637;53.352;-6.356;2024-03-23T07:34:41;19.20;;;2.65;;
35530;SDS011;21637;53.352;-6.356;2024-03-23T07:37:08;12.82;;;2.65;;
35530;SDS011;21637;53.352;-6.356;2024-03-23T07:39:34;10.60;;;2.25;;
35530;SDS011;21637;53.352;-6.356;2024-03-23T07:41:59;12.82;;;3.28;;
35530;SDS011;21637;53.352;-6.356;2024-03-23T07:44:25;10.93;;;2.60;;
35530;SDS011;21637;53.352;-6.356;2024-03-23T07:46:51;8.57;;;2.05;;
35530;SDS011;21637;53.352;-6.356;2024-03-23T07:49:16;13.30;;;2.53;;
35530;SDS011;21637;53.352;-6.356;2024-03-23T07:51:43;9.43;;;2.20;;
35530;SDS011;21637;53.352;-6.356;2024-03-23T07:54:09;13.35;;;2.95;;
35530;SDS011;21637;53.352;-6.356;2024-03-23T07:56:35;13.70;;;2.30;;
35530;SDS011;21637;53.352;-6.356;2024-03-23T07:59:01;16.25;;;2.58;;
35530;SDS011;21637;53.352;-6.356;2024-03-23T08:01:28;11.45;;;2.17;;
35530;SDS011;21637;53.352;-6.356;2024-03-23T08:03:54;13.75;;;2.95;;
35530;SDS011;21637;53.352;-6.356;2024-03-23T08:06:20;11.68;;;3.03;;
35530;SDS011;21637;53.352;-6.356;2024-03-23T08:08:52;11.85;;;2.25;;
35530;SDS011;21637;53.352;-6.356;2024-03-23T08:11:29;8.45;;;2.45;;
35530;SDS011;21637;53.352;-6.356;2024-03-23T08:13:56;7.50;;;2.30;;
35530;SDS011;21637;53.352;-6.356;2024-03-23T08:16:22;14.77;;;2.60;;
35530;SDS011;21637;53.352;-6.356;2024-03-23T08:18:50;10.57;;;2.40;;
35530;SDS011;21637;53.352;-6.356;2024-03-23T08:21:17;10.57;;;2.15;;
35530;SDS011;21637;53.352;-6.356;2024-03-23T08:23:43;13.82;;;2.25;;
35530;SDS011;21637;53.352;-6.356;2024-03-23T08:26:09;9.63;;;2.05;;
35530;SDS011;21637;53.352;-6.356;2024-03-23T08:28:36;6.78;;;1.77;;
35530;SDS011;21637;53.352;-6.356;2024-03-23T08:31:09;8.20;;;1.90;;
35530;SDS011;21637;53.352;-6.356;2024-03-23T08:36:02;9.48;;;2.45;;
35530;SDS011;21637;53.352;-6.356;2024-03-23T08:38:32;6.65;;;2.00;;
35530;SDS011;21637;53.352;-6.356;2024-03-23T08:41:01;9.45;;;1.50;;
35530;SDS011;21637;53.352;-6.356;2024-03-23T08:43:28;10.00;;;1.80;;
35530;SDS011;21637;53.352;-6.356;2024-03-23T08:46:07;9.60;;;1.75;;
35530;SDS011;21637;53.352;-6.356;2024-03-23T08:48:41;8.25;;;1.80;;
35530;SDS011;21637;53.352;-6.356;2024-03-23T08:51:09;6.85;;;1.73;;
35530;SDS011;21637;53.352;-6.356;2024-03-23T08:53:35;6.03;;;1.55;;
35530;SDS011;21637;53.352;-6.356;2024-03-23T08:56:02;10.57;;;1.70;;
35530;SDS011;21637;53.352;-6.356;2024-03-23T08:58:29;8.40;;;1.70;;
35530;SDS011;21637;53.352;-6.356;2024-03-23T09:00:56;11.65;;;2.08;;
35530;SDS011;21637;53.352;-6.356;2024-03-23T09:03:28;8.88;;;2.30;;
35530;SDS011;21637;53.352;-6.356;2024-03-23T09:05:53;10.50;;;2.10;;
35530;SDS011;21637;53.352;-6.356;2024-03-23T09:08:20;9.40;;;2.13;;
35530;SDS011;21637;53.352;-6.356;2024-03-23T09:10:46;10.20;;;2.20;;
35530;SDS011;21637;53.352;-6.356;2024-03-23T09:13:13;6.78;;;1.80;;
35530;SDS011;21637;53.352;-6.356;2024-03-23T09:15:45;5.68;;;1.83;;
35530;SDS011;21637;53.352;-6.356;2024-03-23T09:18:15;7.50;;;2.08;;
35530;SDS011;21637;53.352;-6.356;2024-03-23T09:20:41;10.98;;;1.83;;
35530;SDS011;21637;53.352;-6.356;2024-03-23T09:23:07;8.95;;;2.15;;
35530;SDS011;21637;53.352;-6.356;2024-03-23T09:25:39;6.68;;;2.00;;
35530;SDS011;21637;53.352;-6.356;2024-03-23T09:28:05;9.35;;;2.00;;
35530;SDS011;21637;53.352;-6.356;2024-03-23T09:30:32;5.97;;;1.77;;
35530;SDS011;21637;53.352;-6.356;2024-03-23T09:32:58;8.48;;;1.85;;
35530;SDS011;21637;53.352;-6.356;2024-03-23T09:35:24;9.30;;;1.52;;
35530;SDS011;21637;53.352;-6.356;2024-03-23T09:37:50;4.60;;;1.40;;
35530;SDS011;21637;53.352;-6.356;2024-03-23T09:40:16;5.68;;;1.50;;
35530;SDS011;21637;53.352;-6.356;2024-03-23T09:42:41;4.15;;;1.20;;
35530;SDS011;21637;53.352;-6.356;2024-03-23T09:45:17;5.90;;;2.05;;
35530;SDS011;21637;53.352;-6.356;2024-03-23T09:47:46;7.40;;;1.85;;
35530;SDS011;21637;53.352;-6.356;2024-03-23T09:50:13;9.10;;;1.95;;
35530;SDS011;21637;53.352;-6.356;2024-03-23T09:52:39;4.47;;;1.50;;
35530;SDS011;21637;53.352;-6.356;2024-03-23T09:55:06;5.40;;;1.70;;
35530;SDS011;21637;53.352;-6.356;2024-03-23T09:57:34;6.00;;;1.52;;
35530;SDS011;21637;53.352;-6.356;2024-03-23T09:59:59;3.05;;;0.77;;
35530;SDS011;21637;53.352;-6.356;2024-03-23T10:02:25;5.97;;;1.35;;
35530;SDS011;21637;53.352;-6.356;2024-03-23T10:04:51;4.18;;;1.10;;
35530;SDS011;21637;53.352;-6.356;2024-03-23T10:07:20;4.40;;;1.23;;
35530;SDS011;21637;53.352;-6.356;2024-03-23T10:09:49;3.90;;;1.25;;
35530;SDS011;21637;53.352;-6.356;2024-03-23T10:12:18;4.20;;;1.45;;
35530;SDS011;21637;53.352;-6.356;2024-03-23T10:14:45;4.72;;;1.10;;
35530;SDS011;21637;53.352;-6.356;2024-03-23T10:17:19;4.00;;;1.30;;
35530;SDS011;21637;53.352;-6.356;2024-03-23T10:19:49;2.60;;;1.13;;
35530;SDS011;21637;53.352;-6.356;2024-03-23T10:22:19;6.43;;;1.48;;
35530;SDS011;21637;53.352;-6.356;2024-03-23T10:24:47;5.82;;;1.08;;
35530;SDS011;21637;53.352;-6.356;2024-03-23T10:27:17;5.88;;;2.05;;
35530;SDS011;21637;53.352;-6.356;2024-03-23T10:29:48;4.22;;;1.30;;
35530;SDS011;21637;53.352;-6.356;2024-03-23T10:32:15;5.80;;;1.40;;
35530;SDS011;21637;53.352;-6.356;2024-03-23T10:34:42;4.95;;;2.20;;
35530;SDS011;21637;53.352;-6.356;2024-03-23T10:37:08;9.00;;;1.55;;
35530;SDS011;21637;53.352;-6.356;2024-03-23T10:39:35;7.13;;;1.70;;
35530;SDS011;21637;53.352;-6.356;2024-03-23T10:42:02;7.22;;;1.55;;
35530;SDS011;21637;53.352;-6.356;2024-03-23T10:44:30;9.18;;;2.05;;
35530;SDS011;21637;53.352;-6.356;2024-03-23T10:46:59;8.63;;;1.88;;
35530;SDS011;21637;53.352;-6.356;2024-03-23T10:49:30;9.40;;;2.03;;
35530;SDS011;21637;53.352;-6.356;2024-03-23T10:51:58;7.72;;;1.23;;
35530;SDS011;21637;53.352;-6.356;2024-03-23T10:54:31;6.20;;;1.65;;
35530;SDS011;21637;53.352;-6.356;2024-03-23T10:57:11;8.25;;;1.77;;
35530;SDS011;21637;53.352;-6.356;2024-03-23T11:02:07;8.23;;;1.58;;
35530;SDS011;21637;53.352;-6.356;2024-03-23T11:04:43;8.43;;;2.05;;
35530;SDS011;21637;53.352;-6.356;2024-03-23T11:09:53;10.15;;;2.15;;
35530;SDS011;21637;53.352;-6.356;2024-03-23T11:14:52;8.30;;;1.63;;
35530;SDS011;21637;53.352;-6.356;2024-03-23T11:17:31;10.82;;;2.00;;
35530;SDS011;21637;53.352;-6.356;2024-03-23T11:20:01;10.10;;;2.22;;
35530;SDS011;21637;53.352;-6.356;2024-03-23T11:27:49;7.05;;;1.98;;
35530;SDS011;21637;53.352;-6.356;2024-03-23T11:30:22;8.73;;;2.13;;
35530;SDS011;21637;53.352;-6.356;2024-03-23T11:32:57;8.85;;;1.98;;
35530;SDS011;21637;53.352;-6.356;2024-03-23T11:38:06;8.27;;;1.73;;
35530;SDS011;21637;53.352;-6.356;2024-03-23T11:40:32;7.47;;;1.75;;
35530;SDS011;21637;53.352;-6.356;2024-03-23T11:42:59;4.65;;;1.33;;
35530;SDS011;21637;53.352;-6.356;2024-03-23T11:45:45;7.82;;;1.67;;
35530;SDS011;21637;53.352;-6.356;2024-03-23T11:48:15;6.90;;;1.85;;
35530;SDS011;21637;53.352;-6.356;2024-03-23T11:50:47;11.55;;;1.92;;
35530;SDS011;21637;53.352;-6.356;2024-03-23T11:53:17;10.63;;;1.92;;
35530;SDS011;21637;53.352;-6.356;2024-03-23T11:55:47;10.00;;;2.00;;
35530;SDS011;21637;53.352;-6.356;2024-03-23T11:58:15;10.13;;;2.30;;
35530;SDS011;21637;53.352;-6.356;2024-03-23T12:00:41;11.77;;;2.25;;
35530;SDS011;21637;53.352;-6.356;2024-03-23T12:03:13;16.88;;;3.25;;
35530;SDS011;21637;53.352;-6.356;2024-03-23T12:05:41;12.25;;;3.05;;
35530;SDS011;21637;53.352;-6.356;2024-03-23T12:10:49;8.90;;;1.70;;
35530;SDS011;21637;53.352;-6.356;2024-03-23T12:13:19;12.25;;;2.38;;
35530;SDS011;21637;53.352;-6.356;2024-03-23T12:15:50;13.45;;;2.70;;
35530;SDS011;21637;53.352;-6.356;2024-03-23T12:18:16;16.17;;;2.38;;
35530;SDS011;21637;53.352;-6.356;2024-03-23T12:20:42;10.27;;;2.45;;
35530;SDS011;21637;53.352;-6.356;2024-03-23T12:23:09;14.57;;;2.22;;
35530;SDS011;21637;53.352;-6.356;2024-03-23T12:25:39;11.18;;;2.50;;
35530;SDS011;21637;53.352;-6.356;2024-03-23T12:28:06;10.98;;;1.92;;
35530;SDS011;21637;53.352;-6.356;2024-03-23T12:30:33;11.18;;;2.72;;
35530;SDS011;21637;53.352;-6.356;2024-03-23T12:33:00;13.75;;;2.67;;
35530;SDS011;21637;53.352;-6.356;2024-03-23T12:35:25;12.15;;;2.13;;
35530;SDS011;21637;53.352;-6.356;2024-03-23T12:37:51;9.27;;;2.45;;
35530;SDS011;21637;53.352;-6.356;2024-03-23T12:40:17;6.65;;;2.13;;
35530;SDS011;21637;53.352;-6.356;2024-03-23T12:42:43;11.57;;;2.35;;
35530;SDS011;21637;53.352;-6.356;2024-03-23T12:45:08;7.53;;;2.42;;
35530;SDS011;21637;53.352;-6.356;2024-03-23T12:47:34;9.95;;;2.45;;
35530;SDS011;21637;53.352;-6.356;2024-03-23T12:50:00;13.82;;;2.97;;
35530;SDS011;21637;53.352;-6.356;2024-03-23T12:52:25;8.73;;;2.28;;
35530;SDS011;21637;53.352;-6.356;2024-03-23T12:54:56;12.98;;;2.60;;
35530;SDS011;21637;53.352;-6.356;2024-03-23T12:57:23;8.93;;;2.53;;
35530;SDS011;21637;53.352;-6.356;2024-03-23T12:59:52;12.63;;;3.05;;
35530;SDS011;21637;53.352;-6.356;2024-03-23T13:02:21;15.77;;;2.97;;
35530;SDS011;21637;53.352;-6.356;2024-03-23T13:04:49;12.20;;;2.38;;
35530;SDS011;21637;53.352;-6.356;2024-03-23T13:07:15;17.95;;;2.60;;
35530;SDS011;21637;53.352;-6.356;2024-03-23T13:09:42;13.70;;;2.47;;
35530;SDS011;21637;53.352;-6.356;2024-03-23T13:12:08;12.32;;;2.90;;
35530;SDS011;21637;53.352;-6.356;2024-03-23T13:14:33;17.13;;;2.70;;
35530;SDS011;21637;53.352;-6.356;2024-03-23T13:17:00;10.10;;;2.63;;
35530;SDS011;21637;53.352;-6.356;2024-03-23T13:19:27;13.82;;;2.22;;
35530;SDS011;21637;53.352;-6.356;2024-03-23T13:21:56;13.63;;;2.80;;
35530;SDS011;21637;53.352;-6.356;2024-03-23T13:24:25;10.80;;;2.58;;
35530;SDS011;21637;53.352;-6.356;2024-03-23T13:26:51;16.95;;;2.72;;
35530;SDS011;21637;53.352;-6.356;2024-03-23T13:29:18;14.52;;;2.80;;
35530;SDS011;21637;53.352;-6.356;2024-03-23T13:31:45;15.30;;;2.90;;
35530;SDS011;21637;53.352;-6.356;2024-03-23T13:34:14;17.33;;;3.40;;
35530;SDS011;21637;53.352;-6.356;2024-03-23T13:36:49;15.57;;;5.07;;
35530;SDS011;21637;53.352;-6.356;2024-03-23T13:39:15;14.00;;;5.85;;
35530;SDS011;21637;53.352;-6.356;2024-03-23T13:41:43;13.85;;;3.47;;
35530;SDS011;21637;53.352;-6.356;2024-03-23T13:44:09;15.00;;;6.78;;
35530;SDS011;21637;53.352;-6.356;2024-03-23T13:46:37;19.85;;;3.92;;
35530;SDS011;21637;53.352;-6.356;2024-03-23T13:49:04;11.05;;;3.85;;
35530;SDS011;21637;53.352;-6.356;2024-03-23T13:51:30;13.45;;;2.90;;
35530;SDS011;21637;53.352;-6.356;2024-03-23T13:53:56;15.23;;;3.65;;
35530;SDS011;21637;53.352;-6.356;2024-03-23T13:56:25;13.05;;;2.83;;
35530;SDS011;21637;53.352;-6.356;2024-03-23T13:58:50;17.08;;;3.75;;
35530;SDS011;21637;53.352;-6.356;2024-03-23T14:01:16;11.90;;;2.45;;
35530;SDS011;21637;53.352;-6.356;2024-03-23T14:03:42;13.15;;;3.42;;
35530;SDS011;21637;53.352;-6.356;2024-03-23T14:06:09;16.10;;;3.38;;
35530;SDS011;21637;53.352;-6.356;2024-03-23T14:08:36;16.70;;;3.38;;
35530;SDS011;21637;53.352;-6.356;2024-03-23T14:11:04;13.38;;;3.15;;
35530;SDS011;21637;53.352;-6.356;2024-03-23T14:13:30;12.40;;;3.53;;
35530;SDS011;21637;53.352;-6.356;2024-03-23T14:15:56;12.35;;;3.25;;
35530;SDS011;21637;53.352;-6.356;2024-03-23T14:18:23;11.20;;;3.72;;
35530;SDS011;21637;53.352;-6.356;2024-03-23T14:20:49;11.07;;;2.88;;
35530;SDS011;21637;53.352;-6.356;2024-03-23T14:23:15;19.73;;;4.00;;
35530;SDS011;21637;53.352;-6.356;2024-03-23T14:25:42;22.05;;;3.67;;
35530;SDS011;21637;53.352;-6.356;2024-03-23T14:28:07;15.93;;;3.67;;
35530;SDS011;21637;53.352;-6.356;2024-03-23T14:30:39;17.48;;;4.45;;
35530;SDS011;21637;53.352;-6.356;2024-03-23T14:33:06;14.00;;;3.58;;
35530;SDS011;21637;53.352;-6.356;2024-03-23T14:35:31;17.50;;;4.15;;
35530;SDS011;21637;53.352;-6.356;2024-03-23T14:37:58;15.65;;;3.60;;
35530;SDS011;21637;53.352;-6.356;2024-03-23T14:40:24;18.15;;;5.63;;
35530;SDS011;21637;53.352;-6.356;2024-03-23T14:42:52;20.95;;;6.28;;
35530;SDS011;21637;53.352;-6.356;2024-03-23T14:45:21;17.25;;;5.53;;
35530;SDS011;21637;53.352;-6.356;2024-03-23T14:47:48;17.55;;;4.15;;
35530;SDS011;21637;53.352;-6.356;2024-03-23T14:50:14;21.40;;;5.28;;
35530;SDS011;21637;53.352;-6.356;2024-03-23T14:52:47;19.10;;;4.80;;
35530;SDS011;21637;53.352;-6.356;2024-03-23T14:55:13;18.83;;;6.90;;
35530;SDS011;21637;53.352;-6.356;2024-03-23T14:57:39;20.27;;;5.97;;
35530;SDS011;21637;53.352;-6.356;2024-03-23T15:00:08;18.27;;;6.95;;
35530;SDS011;21637;53.352;-6.356;2024-03-23T15:02:38;16.55;;;5.00;;
35530;SDS011;21637;53.352;-6.356;2024-03-23T15:05:04;18.05;;;5.13;;
35530;SDS011;21637;53.352;-6.356;2024-03-23T15:07:34;16.13;;;4.38;;
35530;SDS011;21637;53.352;-6.356;2024-03-23T15:10:01;12.23;;;4.05;;
35530;SDS011;21637;53.352;-6.356;2024-03-23T15:12:29;16.30;;;5.03;;
35530;SDS011;21637;53.352;-6.356;2024-03-23T15:14:58;20.67;;;7.65;;
35530;SDS011;21637;53.352;-6.356;2024-03-23T15:17:24;20.63;;;4.60;;
35530;SDS011;21637;53.352;-6.356;2024-03-23T15:19:50;12.90;;;3.95;;
35530;SDS011;21637;53.352;-6.356;2024-03-23T15:22:16;19.75;;;4.28;;
35530;SDS011;21637;53.352;-6.356;2024-03-23T15:24:41;14.07;;;3.40;;
35530;SDS011;21637;53.352;-6.356;2024-03-23T15:27:07;11.73;;;3.60;;
35530;SDS011;21637;53.352;-6.356;2024-03-23T15:29:34;14.77;;;3.47;;
35530;SDS011;21637;53.352;-6.356;2024-03-23T15:32:01;14.40;;;3.20;;
35530;SDS011;21637;53.352;-6.356;2024-03-23T15:34:28;12.85;;;3.17;;
35530;SDS011;21637;53.352;-6.356;2024-03-23T15:36:54;18.70;;;3.80;;
35530;SDS011;21637;53.352;-6.356;2024-03-23T15:39:20;7.07;;;2.90;;
35530;SDS011;21637;53.352;-6.356;2024-03-23T15:41:47;15.18;;;3.80;;